Time;durP1;ratioP1;P1;durP2;ratioP2;P2;SDS_P1;SDS_P2;PMS_P1;PMS_P2;Temp;Humidity;BMP_temperature;BMP_pressure;BME280_temperature;BME280_humidity;BME280_pressure;Samples;Min_cycle;Max_cycle;Signal;HPM_P1;HPM_P2
2022/10/02 00:00:55;;;;;;;;;;;;;;;;;;5103859;28;45113;-81
2022/10/02 00:03:22;;;;;;;;;;;;;;;;;;5096755;28;42569;-81
2022/10/02 00:05:49;;;;;;;;;;;;;;;;;;5101284;28;43971;-82
2022/10/02 00:08:17;;;;;;;;;;;;;;;;;;5103973;28;44977;-82
2022/10/02 00:10:49;;;;;;;;;;;;;;;;;;5108330;28;44976;-80
2022/10/02 00:13:16;;;;;;;;;;;;;;;;;;5096018;28;43803;-81
2022/10/02 00:15:43;;;;;;;;;;;;;;;;;;5103331;28;43165;-81
2022/10/02 00:18:10;;;;;;;;;;;;;;;;;;5097260;28;45774;-81
2022/10/02 00:20:37;;;;;;;;;;;;;;;;;;5096437;28;44951;-81
2022/10/02 00:23:03;;;;;;;;;;;;;;;;;;5105603;28;43675;-82
2022/10/02 00:25:30;;;;;;;;;;;;;;;;;;5102384;28;44848;-80
2022/10/02 00:27:57;;;;;;;;;;;;;;;;;;5093700;28;45806;-82
2022/10/02 00:30:24;;;;;;;;;;;;;;;;;;5093949;28;44786;-80
2022/10/02 00:32:51;;;;;;;;;;;;;;;;;;5094453;28;43690;-81
2022/10/02 00:35:18;;;;;;;;;;;;;;;;;;5106897;28;44543;-80
2022/10/02 00:37:45;;;;;;;;;;;;;;;;;;5096438;28;45856;-81
2022/10/02 00:40:12;;;;;;;;;;;;;;;;;;5097577;28;45012;-81
2022/10/02 00:42:39;;;;;;;;;;;;;;;;;;5096035;28;43700;-81
2022/10/02 00:45:06;;;;;;;;;;;;;;;;;;5093711;28;44823;-81
2022/10/02 00:47:33;;;;;;;;;;;;;;;;;;5096624;28;45637;-82
2022/10/02 00:50:00;;;;;;;;;;;;;;;;;;5097668;28;45293;-81
2022/10/02 00:52:27;;;;;;;;;;;;;;;;;;5093489;28;43551;-81
2022/10/02 00:54:54;;;;;;;;;;;;;;;;;;5097182;28;44308;-81
2022/10/02 00:57:21;;;;;;;;;;;;;;;;;;5093787;28;46103;-82
2022/10/02 00:59:50;;;;;;;;;;;;;;;;;;5101631;28;45433;-82
2022/10/02 01:02:17;;;;;;;;;;;;;;;;;;5087902;28;43086;-81
2022/10/02 01:04:46;;;;;;;;;;;;;;;;;;5090894;28;44815;-81
2022/10/02 01:07:13;;;;;;;;;;;;;;;;;;5097302;28;45695;-81
2022/10/02 01:09:40;;;;;;;;;;;;;;;;;;5116016;28;45422;-81
2022/10/02 01:12:07;;;;;;;;;;;;;;;;;;5105367;28;43876;-81
2022/10/02 01:14:35;;;;;;;;;;;;;;;;;;5100065;28;44653;-81
2022/10/02 01:17:01;;;;;;;;;;;;;;;;;;5105925;28;45678;-80
2022/10/02 01:19:28;;;;;;;;;;;;;;;;;;5084568;28;44998;-82
2022/10/02 01:21:55;;;;;;;;;;;;;;;;;;5098251;28;44481;-80
2022/10/02 01:24:22;;;;;;;;;;;;;;;;;;5087926;28;44789;-80
2022/10/02 01:26:49;;;;;;;;;;;;;;;;;;5091275;28;45708;-81
2022/10/02 01:29:16;;;;;;;;;;;;;;;;;;5100110;28;43394;-81
2022/10/02 01:31:43;;;;;;;;;;;;;;;;;;5092269;28;43598;-81
2022/10/02 01:34:10;;;;;;;;;;;;;;;;;;5095381;28;44547;-80
2022/10/02 01:36:37;;;;;;;;;;;;;;;;;;5100127;28;45684;-81
2022/10/02 01:39:04;;;;;;;;;;;;;;;;;;5087405;28;44798;-81
2022/10/02 01:41:31;;;;;;;;;;;;;;;;;;5096480;28;43608;-80
2022/10/02 01:43:58;;;;;;;;;;;;;;;;;;5102605;28;44772;-80
2022/10/02 01:46:25;;;;;;;;;;;;;;;;;;5089375;28;45785;-80
2022/10/02 01:48:53;;;;;;;;;;;;;;;;;;5096518;28;44817;-81
2022/10/02 01:51:19;;;;;;;;;;;;;;;;;;5106569;28;43607;-81
2022/10/02 01:53:46;;;;;;;;;;;;;;;;;;5090304;28;44869;-80
2022/10/02 01:56:13;;;;;;;;;;;;;;;;;;5094331;28;45657;-80
2022/10/02 01:58:40;;;;;;;;;;;;;;;;;;5099846;28;45020;-80
2022/10/02 02:01:07;;;;;;;;;;;;;;;;;;5098923;28;43555;-80
2022/10/02 02:03:34;;;;;;;;;;;;;;;;;;5102873;28;44588;-81
2022/10/02 02:06:01;;;;;;;;;;;;;;;;;;5103967;28;45778;-81
2022/10/02 02:08:28;;;;;;;;;;;;;;;;;;5099966;28;44597;-81
2022/10/02 02:10:55;;;;;;;;;;;;;;;;;;5093010;28;43496;-81
2022/10/02 02:13:22;;;;;;;;;;;;;;;;;;5103047;28;44933;-79
2022/10/02 02:15:49;;;;;;;;;;;;;;;;;;5102852;28;45428;-80
2022/10/02 02:18:16;;;;;;;;;;;;;;;;;;5096805;28;45225;-80
2022/10/02 02:20:43;;;;;;;;;;;;;;;;;;5099446;28;43722;-80
2022/10/02 02:23:10;;;;;;;;;;;;;;;;;;5098016;28;44907;-80
2022/10/02 02:25:37;;;;;;;;;;;;;;;;;;5096949;28;45599;-79
2022/10/02 02:28:04;;;;;;;;;;;;;;;;;;5103866;28;44973;-79
2022/10/02 02:30:31;;;;;;;;;;;;;;;;;;5096258;28;43696;-80
2022/10/02 02:32:58;;;;;;;;;;;;;;;;;;5095720;28;43374;-80
2022/10/02 02:35:25;;;;;;;;;;;;;;;;;;5102333;28;45694;-80
2022/10/02 02:37:52;;;;;;;;;;;;;;;;;;5109691;28;45122;-80
2022/10/02 02:40:19;;;;;;;;;;;;;;;;;;5101874;28;43529;-79
2022/10/02 02:42:46;;;;;;;;;;;;;;;;;;5099771;28;44773;-79
2022/10/02 02:45:13;;;;;;;;;;;;;;;;;;5103902;28;45748;-79
2022/10/02 02:47:40;;;;;;;;;;;;;;;;;;5097446;28;45013;-80
2022/10/02 02:50:07;;;;;;;;;;;;;;;;;;5094441;28;43595;-79
2022/10/02 02:52:34;;;;;;;;;;;;;;;;;;5097343;28;44260;-79
2022/10/02 02:55:01;;;;;;;;;;;;;;;;;;5101460;28;45810;-79
2022/10/02 02:57:28;;;;;;;;;;;;;;;;;;5094609;28;45125;-79
2022/10/02 02:59:55;;;;;;;;;;;;;;;;;;5103211;28;43639;-79
2022/10/02 03:02:22;;;;;;;;;;;;;;;;;;5091616;28;44959;-81
2022/10/02 03:04:49;;;;;;;;;;;;;;;;;;5089134;28;45374;-79
2022/10/02 03:07:16;;;;;;;;;;;;;;;;;;5095524;28;45001;-79
2022/10/02 03:09:43;;;;;;;;;;;;;;;;;;5102651;28;43794;-80
2022/10/02 03:12:10;;;;;;;;;;;;;;;;;;5087036;28;44454;-80
2022/10/02 03:14:37;;;;;;;;;;;;;;;;;;5113647;28;45705;-80
2022/10/02 03:17:04;;;;;;;;;;;;;;;;;;5107858;28;45083;-79
2022/10/02 03:19:31;;;;;;;;;;;;;;;;;;5106314;28;43839;-79
2022/10/02 03:21:58;;;;;;;;;;;;;;;;;;5102665;28;42747;-79
2022/10/02 03:24:25;;;;;;;;;;;;;;;;;;5099350;28;45610;-79
2022/10/02 03:26:52;;;;;;;;;;;;;;;;;;5101771;28;45117;-80
2022/10/02 03:29:19;;;;;;;;;;;;;;;;;;5100153;28;42241;-79
2022/10/02 03:31:46;;;;;;;;;;;;;;;;;;5099051;28;44752;-81
2022/10/02 03:34:13;;;;;;;;;;;;;;;;;;5100734;28;45122;-79
2022/10/02 03:36:40;;;;;;;;;;;;;;;;;;5104580;28;45046;-80
2022/10/02 03:39:07;;;;;;;;;;;;;;;;;;5091239;28;43589;-80
2022/10/02 03:41:51;;;;;;;;;;;;;;;;;;5111689;28;44391;-79
2022/10/02 03:44:18;;;;;;;;;;;;;;;;;;5099353;28;45567;-79
2022/10/02 03:46:45;;;;;;;;;;;;;;;;;;5092342;28;43962;-79
2022/10/02 03:49:12;;;;;;;;;;;;;;;;;;5100210;28;43401;-79
2022/10/02 03:51:39;;;;;;;;;;;;;;;;;;5099701;28;45251;-79
2022/10/02 03:54:06;;;;;;;;;;;;;;;;;;5094462;28;45685;-78
2022/10/02 03:56:33;;;;;;;;;;;;;;;;;;5111618;28;44775;-78
2022/10/02 03:59:00;;;;;;;;;;;;;;;;;;5098230;28;43687;-79
2022/10/02 04:01:27;;;;;;;;;;;;;;;;;;5094897;28;44749;-80
2022/10/02 04:03:54;;;;;;;;;;;;;;;;;;5094981;28;45550;-80
2022/10/02 04:06:21;;;;;;;;;;;;;;;;;;5102342;28;45098;-79
2022/10/02 04:08:48;;;;;;;;;;;;;;;;;;5104770;28;43552;-79
2022/10/02 04:11:15;;;;;;;;;;;;;;;;;;5089173;28;44872;-79
2022/10/02 04:13:42;;;;;;;;;;;;;;;;;;5087356;28;45588;-79
2022/10/02 04:16:10;;;;;;;;;;;;;;;;;;5094663;28;45118;-78
2022/10/02 04:18:37;;;;;;;;;;;;;;;;;;5104662;28;43264;-78
2022/10/02 04:21:03;;;;;;;;;;;;;;;;;;5101415;28;45775;-78
2022/10/02 04:23:31;;;;;;;;;;;;;;;;;;5107328;28;45665;-80
2022/10/02 04:25:58;;;;;;;;;;;;;;;;;;5101298;28;45112;-80
2022/10/02 04:28:25;;;;;;;;;;;;;;;;;;5102226;28;43681;-79
2022/10/02 04:30:52;;;;;;;;;;;;;;;;;;5097061;28;44909;-78
2022/10/02 04:33:19;;;;;;;;;;;;;;;;;;5092952;28;45729;-79
2022/10/02 04:35:46;;;;;;;;;;;;;;;;;;5106412;28;44273;-78
2022/10/02 04:38:13;;;;;;;;;;;;;;;;;;5099953;28;43381;-78
2022/10/02 04:40:40;;;;;;;;;;;;;;;;;;5098694;28;44851;-79
2022/10/02 04:43:07;;;;;;;;;;;;;;;;;;5095519;28;45653;-79
2022/10/02 04:45:34;;;;;;;;;;;;;;;;;;5099459;28;45411;-79
2022/10/02 04:48:01;;;;;;;;;;;;;;;;;;5092001;28;43691;-79
2022/10/02 04:50:28;;;;;;;;;;;;;;;;;;5102159;28;44649;-78
2022/10/02 04:52:55;;;;;;;;;;;;;;;;;;5100296;28;45615;-78
2022/10/02 04:55:22;;;;;;;;;;;;;;;;;;5090995;28;43803;-78
2022/10/02 04:57:49;;;;;;;;;;;;;;;;;;5100158;28;43567;-78
2022/10/02 05:00:16;;;;;;;;;;;;;;;;;;5099253;28;44096;-78
2022/10/02 05:02:43;;;;;;;;;;;;;;;;;;5092877;28;45770;-78
2022/10/02 05:05:10;;;;;;;;;;;;;;;;;;5090943;28;44960;-79
2022/10/02 05:07:37;;;;;;;;;;;;;;;;;;5094535;28;43448;-79
2022/10/02 05:10:04;;;;;;;;;;;;;;;;;;5098578;28;44835;-79
2022/10/02 05:12:31;;;;;;;;;;;;;;;;;;5098253;28;45724;-79
2022/10/02 05:15:02;;;;;;;;;;;;;;;;;;5088357;28;44877;-78
2022/10/02 05:17:29;;;;;;;;;;;;;;;;;;5094114;28;43265;-79
2022/10/02 05:19:56;;;;;;;;;;;;;;;;;;5093683;28;44584;-79
2022/10/02 05:22:23;;;;;;;;;;;;;;;;;;5098844;28;45786;-78
2022/10/02 05:24:50;;;;;;;;;;;;;;;;;;5090527;28;44938;-79
2022/10/02 05:27:17;;;;;;;;;;;;;;;;;;5098565;28;44021;-79
2022/10/02 05:29:44;;;;;;;;;;;;;;;;;;5081052;28;44644;-78
2022/10/02 05:32:16;;;;;;;;;;;;;;;;;;5075328;28;45830;-78
2022/10/02 05:34:43;;;;;;;;;;;;;;;;;;5077393;28;45135;-79
2022/10/02 05:37:11;;;;;;;;;;;;;;;;;;5094456;28;41352;-80
2022/10/02 05:39:38;;;;;;;;;;;;;;;;;;5088866;28;43515;-80
2022/10/02 05:42:05;;;;;;;;;;;;;;;;;;5079840;28;45829;-81
2022/10/02 05:44:34;;;;;;;;;;;;;;;;;;5072023;28;45093;-79
2022/10/02 05:47:01;;;;;;;;;;;;;;;;;;5071990;28;43263;-81
2022/10/02 05:49:28;;;;;;;;;;;;;;;;;;5073317;28;44888;-80
2022/10/02 05:51:57;;;;;;;;;;;;;;;;;;5070006;28;45782;-80
2022/10/02 05:54:24;;;;;;;;;;;;;;;;;;5087021;28;43788;-80
2022/10/02 05:56:50;;;;;;;;;;;;;;;;;;5077355;28;44671;-80
2022/10/02 05:59:17;;;;;;;;;;;;;;;;;;5079971;28;45141;-79
2022/10/02 06:01:44;;;;;;;;;;;;;;;;;;5075569;28;45915;-80
2022/10/02 06:04:11;;;;;;;;;;;;;;;;;;5092414;28;44979;-80
2022/10/02 06:06:38;;;;;;;;;;;;;;;;;;5090117;28;43897;-80
2022/10/02 06:09:06;;;;;;;;;;;;;;;;;;5087555;28;43377;-80
2022/10/02 06:11:32;;;;;;;;;;;;;;;;;;5089505;28;45791;-80
2022/10/02 06:13:59;;;;;;;;;;;;;;;;;;5089292;28;45085;-80
2022/10/02 06:16:27;;;;;;;;;;;;;;;;;;5100900;28;43689;-81
2022/10/02 06:18:54;;;;;;;;;;;;;;;;;;5097107;28;44877;-81
2022/10/02 06:21:21;;;;;;;;;;;;;;;;;;5095660;28;45707;-81
2022/10/02 06:23:48;;;;;;;;;;;;;;;;;;5094422;28;45304;-81
2022/10/02 06:26:15;;;;;;;;;;;;;;;;;;5093807;28;43446;-81
2022/10/02 06:28:42;;;;;;;;;;;;;;;;;;5104949;28;44739;-81
2022/10/02 06:31:09;;;;;;;;;;;;;;;;;;5108079;28;45693;-80
2022/10/02 06:33:36;;;;;;;;;;;;;;;;;;5088304;28;44874;-81
2022/10/02 06:36:03;;;;;;;;;;;;;;;;;;5103177;28;43735;-81
2022/10/02 06:38:30;;;;;;;;;;;;;;;;;;5093040;28;44668;-81
2022/10/02 06:40:57;;;;;;;;;;;;;;;;;;5096939;28;45819;-81
2022/10/02 06:43:25;;;;;;;;;;;;;;;;;;5096812;28;44908;-80
2022/10/02 06:45:55;;;;;;;;;;;;;;;;;;5088949;28;43406;-80
2022/10/02 06:48:22;;;;;;;;;;;;;;;;;;5096192;28;44540;-80
2022/10/02 06:50:49;;;;;;;;;;;;;;;;;;5093752;28;45608;-81
2022/10/02 06:53:16;;;;;;;;;;;;;;;;;;5098619;28;44545;-81
2022/10/02 06:55:43;;;;;;;;;;;;;;;;;;5089315;28;43566;-80
2022/10/02 06:58:10;;;;;;;;;;;;;;;;;;5087874;28;45041;-81
2022/10/02 07:00:37;;;;;;;;;;;;;;;;;;5094396;28;47152;-80
2022/10/02 07:03:05;;;;;;;;;;;;;;;;;;5093308;28;44917;-81
2022/10/02 07:05:32;;;;;;;;;;;;;;;;;;5098072;28;43158;-81
2022/10/02 07:07:59;;;;;;;;;;;;;;;;;;5092784;28;44780;-80
2022/10/02 07:10:26;;;;;;;;;;;;;;;;;;5095221;28;45593;-82
2022/10/02 07:12:53;;;;;;;;;;;;;;;;;;5092913;28;44905;-82
2022/10/02 07:15:20;;;;;;;;;;;;;;;;;;5104230;28;43869;-81
2022/10/02 07:17:48;;;;;;;;;;;;;;;;;;5105808;28;44925;-82
2022/10/02 07:20:15;;;;;;;;;;;;;;;;;;5101051;28;45799;-80
2022/10/02 07:22:42;;;;;;;;;;;;;;;;;;5101676;28;45093;-81
2022/10/02 07:25:11;;;;;;;;;;;;;;;;;;5099529;28;42429;-81
2022/10/02 07:27:38;;;;;;;;;;;;;;;;;;5093022;28;44856;-81
2022/10/02 07:30:05;;;;;;;;;;;;;;;;;;5083078;28;45803;-82
2022/10/02 07:32:32;;;;;;;;;;;;;;;;;;5105233;28;44624;-83
2022/10/02 07:34:59;;;;;;;;;;;;;;;;;;5094813;28;43714;-81
2022/10/02 07:37:29;;;;;;;;;;;;;;;;;;5103396;28;45079;-82
2022/10/02 07:39:56;;;;;;;;;;;;;;;;;;5099085;28;44996;-81
2022/10/02 07:42:23;;;;;;;;;;;;;;;;;;5101929;28;45086;-82
2022/10/02 07:44:50;;;;;;;;;;;;;;;;;;5096416;28;43669;-83
2022/10/02 07:47:17;;;;;;;;;;;;;;;;;;5102692;28;45048;-81
2022/10/02 07:49:44;;;;;;;;;;;;;;;;;;5094542;28;45415;-82
2022/10/02 07:52:11;;;;;;;;;;;;;;;;;;5104291;28;45117;-81
2022/10/02 07:54:38;;;;;;;;;;;;;;;;;;5097038;28;43726;-81
2022/10/02 07:57:05;;;;;;;;;;;;;;;;;;5089569;28;44770;-81
2022/10/02 07:59:35;;;;;;;;;;;;;;;;;;5095142;28;45629;-82
2022/10/02 08:02:02;;;;;;;;;;;;;;;;;;5103967;28;45364;-82
2022/10/02 08:04:30;;;;;;;;;;;;;;;;;;5090300;28;43770;-81
2022/10/02 08:07:02;;;;;;;;;;;;;;;;;;5085356;28;45148;-81
2022/10/02 08:09:29;;;;;;;;;;;;;;;;;;5085527;28;45823;-81
2022/10/02 08:11:56;;;;;;;;;;;;;;;;;;5087509;28;45394;-81
2022/10/02 08:14:24;;;;;;;;;;;;;;;;;;5077076;28;44891;-82
2022/10/02 08:16:51;;;;;;;;;;;;;;;;;;5085626;28;43897;-81
2022/10/02 08:19:18;;;;;;;;;;;;;;;;;;5092850;28;46121;-81
2022/10/02 08:21:45;;;;;;;;;;;;;;;;;;5082224;28;44314;-81
2022/10/02 08:24:12;;;;;;;;;;;;;;;;;;5085183;28;43672;-82
2022/10/02 08:26:41;;;;;;;;;;;;;;;;;;5077274;28;43002;-82
2022/10/02 08:29:08;;;;;;;;;;;;;;;;;;5071349;28;46011;-84
2022/10/02 08:31:35;;;;;;;;;;;;;;;;;;5087675;28;45189;-81
2022/10/02 08:34:02;;;;;;;;;;;;;;;;;;5091368;28;43659;-81
2022/10/02 08:36:29;;;;;;;;;;;;;;;;;;5091323;28;44747;-82
2022/10/02 08:38:56;;;;;;;;;;;;;;;;;;5086666;28;44288;-82
2022/10/02 08:41:23;;;;;;;;;;;;;;;;;;5088617;28;44883;-81
2022/10/02 08:43:52;;;;;;;;;;;;;;;;;;5068784;28;40523;-82
2022/10/02 08:46:20;;;;;;;;;;;;;;;;;;5071287;28;43854;-82
2022/10/02 08:48:53;;;;;;;;;;;;;;;;;;5081967;28;45940;-82
2022/10/02 08:51:20;;;;;;;;;;;;;;;;;;5068190;28;45001;-81
2022/10/02 08:53:47;;;;;;;;;;;;;;;;;;5074352;28;43554;-81
2022/10/02 08:56:14;;;;;;;;;;;;;;;;;;5077285;28;43531;-82
2022/10/02 08:58:45;;;;;;;;;;;;;;;;;;5081063;28;45962;-81
2022/10/02 09:01:13;;;;;;;;;;;;;;;;;;5075710;28;46194;-80
2022/10/02 09:03:44;;;;;;;;;;;;;;;;;;5075160;28;43483;-81
2022/10/02 09:06:11;;;;;;;;;;;;;;;;;;5079108;28;44437;-81
2022/10/02 09:08:39;;;;;;;;;;;;;;;;;;5076109;28;45793;-79
2022/10/02 09:11:06;;;;;;;;;;;;;;;;;;5070679;28;45095;-80
2022/10/02 09:13:33;;;;;;;;;;;;;;;;;;5078016;28;42171;-80
2022/10/02 09:16:00;;;;;;;;;;;;;;;;;;5074680;28;44994;-81
2022/10/02 09:18:27;;;;;;;;;;;;;;;;;;5077518;28;46683;-80
2022/10/02 09:20:54;;;;;;;;;;;;;;;;;;5065730;28;44768;-79
2022/10/02 09:23:21;;;;;;;;;;;;;;;;;;5070008;28;43667;-80
2022/10/02 09:25:48;;;;;;;;;;;;;;;;;;5075585;28;44913;-80
2022/10/02 09:28:16;;;;;;;;;;;;;;;;;;5075381;28;46810;-80
2022/10/02 09:30:46;;;;;;;;;;;;;;;;;;5066241;28;44649;-80
2022/10/02 09:33:14;;;;;;;;;;;;;;;;;;5077288;28;44748;-79
2022/10/02 09:35:42;;;;;;;;;;;;;;;;;;5069929;28;44502;-80
2022/10/02 09:38:09;;;;;;;;;;;;;;;;;;5078705;28;45626;-80
2022/10/02 09:40:36;;;;;;;;;;;;;;;;;;5066376;28;46449;-80
2022/10/02 09:43:03;;;;;;;;;;;;;;;;;;5074744;28;43718;-79
2022/10/02 09:45:31;;;;;;;;;;;;;;;;;;5065204;28;44654;-80
2022/10/02 09:48:03;;;;;;;;;;;;;;;;;;5075339;28;45462;-79
2022/10/02 09:50:30;;;;;;;;;;;;;;;;;;5066310;28;45103;-79
2022/10/02 09:52:58;;;;;;;;;;;;;;;;;;5071758;28;43514;-79
2022/10/02 09:55:25;;;;;;;;;;;;;;;;;;5073703;28;44701;-79
2022/10/02 09:57:53;;;;;;;;;;;;;;;;;;5079101;28;45399;-80
2022/10/02 10:00:20;;;;;;;;;;;;;;;;;;5081102;28;45162;-79
2022/10/02 10:02:47;;;;;;;;;;;;;;;;;;5076718;28;44029;-79
2022/10/02 10:05:14;;;;;;;;;;;;;;;;;;5076907;28;44573;-80
2022/10/02 10:07:41;;;;;;;;;;;;;;;;;;5083421;28;45652;-79
2022/10/02 10:10:08;;;;;;;;;;;;;;;;;;5078283;28;45339;-78
2022/10/02 10:12:35;;;;;;;;;;;;;;;;;;5077671;28;43661;-78
2022/10/02 10:15:02;;;;;;;;;;;;;;;;;;5072933;28;44857;-79
2022/10/02 10:17:37;;;;;;;;;;;;;;;;;;5075063;28;43421;-79
2022/10/02 10:20:05;;;;;;;;;;;;;;;;;;5081533;28;44142;-78
2022/10/02 10:22:32;;;;;;;;;;;;;;;;;;5060984;28;42665;-79
2022/10/02 10:24:59;;;;;;;;;;;;;;;;;;5080230;28;45165;-79
2022/10/02 10:27:28;;;;;;;;;;;;;;;;;;5082875;28;45453;-78
2022/10/02 10:29:56;;;;;;;;;;;;;;;;;;5067687;28;45121;-78
2022/10/02 10:32:23;;;;;;;;;;;;;;;;;;5077610;28;43510;-78
2022/10/02 10:34:50;;;;;;;;;;;;;;;;;;5080606;28;46127;-78
2022/10/02 10:40:03;;;;;;;;;;;;;;;;;;5078702;28;44166;-78
2022/10/02 10:42:31;;;;;;;;;;;;;;;;;;5075860;28;43592;-79
2022/10/02 10:45:10;;;;;;;;;;;;;;;;;;5072092;28;44869;-78
2022/10/02 10:47:37;;;;;;;;;;;;;;;;;;5072147;28;44160;-78
2022/10/02 10:50:05;;;;;;;;;;;;;;;;;;5077128;28;45413;-78
2022/10/02 10:52:32;;;;;;;;;;;;;;;;;;5072448;28;43380;-78
2022/10/02 10:54:59;;;;;;;;;;;;;;;;;;5042785;28;44750;-79
2022/10/02 10:57:26;;;;;;;;;;;;;;;;;;5060229;28;45429;-77
2022/10/02 10:59:53;;;;;;;;;;;;;;;;;;5054454;28;43489;-78
2022/10/02 11:02:20;;;;;;;;;;;;;;;;;;5061960;28;43974;-77
2022/10/02 11:04:51;;;;;;;;;;;;;;;;;;5051248;28;43362;-80
2022/10/02 11:07:18;;;;;;;;;;;;;;;;;;5057172;28;45395;-77
2022/10/02 11:09:46;;;;;;;;;;;;;;;;;;5054433;28;44996;-80
2022/10/02 11:12:13;;;;;;;;;;;;;;;;;;5058462;28;43567;-78
2022/10/02 11:14:40;;;;;;;;;;;;;;;;;;5056889;28;46122;-78
2022/10/02 11:17:07;;;;;;;;;;;;;;;;;;5056363;28;44413;-78
2022/10/02 11:19:34;;;;;;;;;;;;;;;;;;5058008;28;44872;-78
2022/10/02 11:22:01;;;;;;;;;;;;;;;;;;5053724;28;43667;-77
2022/10/02 11:24:28;;;;;;;;;;;;;;;;;;5053629;28;45051;-77
2022/10/02 11:26:55;;;;;;;;;;;;;;;;;;5053758;28;43014;-78
2022/10/02 11:29:23;;;;;;;;;;;;;;;;;;5054439;28;45102;-77
2022/10/02 11:31:52;;;;;;;;;;;;;;;;;;5056546;28;43721;-77
2022/10/02 11:34:19;;;;;;;;;;;;;;;;;;5060271;28;45905;-77
2022/10/02 11:36:46;;;;;;;;;;;;;;;;;;5043536;28;46430;-76
2022/10/02 11:39:13;;;;;;;;;;;;;;;;;;5063770;28;45102;-77
2022/10/02 11:41:43;;;;;;;;;;;;;;;;;;5054733;28;43523;-77
2022/10/02 11:44:10;;;;;;;;;;;;;;;;;;5058774;28;43425;-77
2022/10/02 11:46:37;;;;;;;;;;;;;;;;;;5049926;28;45683;-77
2022/10/02 11:49:06;;;;;;;;;;;;;;;;;;5054513;28;44945;-77
2022/10/02 11:51:34;;;;;;;;;;;;;;;;;;5050110;28;43641;-77
2022/10/02 11:54:01;;;;;;;;;;;;;;;;;;5072849;28;45095;-77
2022/10/02 11:56:30;;;;;;;;;;;;;;;;;;5070631;28;44299;-77
2022/10/02 11:58:57;;;;;;;;;;;;;;;;;;5070606;28;44718;-77
2022/10/02 12:01:24;;;;;;;;;;;;;;;;;;5091468;28;44312;-77
2022/10/02 12:03:51;;;;;;;;;;;;;;;;;;5072389;28;44664;-77
2022/10/02 12:06:18;;;;;;;;;;;;;;;;;;5070223;28;45477;-77
2022/10/02 12:08:45;;;;;;;;;;;;;;;;;;5079367;28;44094;-78
2022/10/02 12:11:12;;;;;;;;;;;;;;;;;;5071269;28;44760;-77
2022/10/02 12:13:40;;;;;;;;;;;;;;;;;;5075471;28;44917;-77
2022/10/02 12:16:07;;;;;;;;;;;;;;;;;;5079728;28;46087;-77
2022/10/02 12:18:35;;;;;;;;;;;;;;;;;;5083694;28;43210;-77
2022/10/02 12:29:24;;;;;;;;;;;;;;;;;;5071527;28;43593;-77
2022/10/02 12:31:51;;;;;;;;;;;;;;;;;;5081749;28;43317;-77
2022/10/02 12:34:18;;;;;;;;;;;;;;;;;;5068074;28;44084;-78
2022/10/02 12:36:46;;;;;;;;;;;;;;;;;;5073440;28;44374;-77
2022/10/02 12:39:13;;;;;;;;;;;;;;;;;;5102822;28;46209;-77
2022/10/02 12:41:42;;;;;;;;;;;;;;;;;;5068279;28;43524;-77
2022/10/02 12:44:10;;;;;;;;;;;;;;;;;;5065044;28;44803;-77
2022/10/02 12:46:37;;;;;;;;;;;;;;;;;;5073641;28;45090;-77
2022/10/02 12:49:05;;;;;;;;;;;;;;;;;;5073446;28;44932;-77
2022/10/02 12:51:33;;;;;;;;;;;;;;;;;;5067069;28;43680;-77
2022/10/02 12:54:04;;;;;;;;;;;;;;;;;;5075008;28;44566;-77
2022/10/02 12:56:31;;;;;;;;;;;;;;;;;;5078090;28;45521;-77
2022/10/02 12:58:58;;;;;;;;;;;;;;;;;;5077558;28;45112;-77
2022/10/02 13:01:30;;;;;;;;;;;;;;;;;;5081828;28;43546;-77
2022/10/02 13:04:00;;;;;;;;;;;;;;;;;;5073200;28;43682;-77
2022/10/02 13:06:29;;;;;;;;;;;;;;;;;;5082186;28;44096;-76
2022/10/02 13:08:59;;;;;;;;;;;;;;;;;;5079371;28;44971;-77
2022/10/02 13:11:26;;;;;;;;;;;;;;;;;;5075171;28;42201;-77
2022/10/02 13:13:55;;;;;;;;;;;;;;;;;;5079575;28;45194;-78
2022/10/02 13:16:23;;;;;;;;;;;;;;;;;;5071230;28;46064;-76
2022/10/02 13:18:51;;;;;;;;;;;;;;;;;;5083723;28;45132;-77
2022/10/02 13:21:18;;;;;;;;;;;;;;;;;;5078659;28;44807;-77
2022/10/02 13:23:54;;;;;;;;;;;;;;;;;;5077046;28;44723;-77
2022/10/02 13:26:21;;;;;;;;;;;;;;;;;;5083447;28;43972;-77
2022/10/02 13:28:48;;;;;;;;;;;;;;;;;;5081067;28;44727;-77
2022/10/02 13:31:15;;;;;;;;;;;;;;;;;;5080829;28;43881;-75
2022/10/02 13:33:42;;;;;;;;;;;;;;;;;;5084924;28;44566;-76
2022/10/02 13:36:10;;;;;;;;;;;;;;;;;;5083390;28;44376;-76
2022/10/02 13:38:37;;;;;;;;;;;;;;;;;;5079165;28;45306;-75
2022/10/02 13:41:04;;;;;;;;;;;;;;;;;;5068327;28;43573;-75
2022/10/02 13:43:31;;;;;;;;;;;;;;;;;;5073946;28;44767;-75
2022/10/02 13:45:58;;;;;;;;;;;;;;;;;;5086124;28;45751;-78
2022/10/02 13:48:25;;;;;;;;;;;;;;;;;;5081163;28;45282;-77
2022/10/02 13:50:52;;;;;;;;;;;;;;;;;;5089087;28;44777;-78
2022/10/02 13:53:19;;;;;;;;;;;;;;;;;;5090587;28;44742;-77
2022/10/02 13:55:46;;;;;;;;;;;;;;;;;;5086157;28;44627;-77
2022/10/02 13:58:14;;;;;;;;;;;;;;;;;;5076068;28;45133;-78
2022/10/02 14:00:41;;;;;;;;;;;;;;;;;;5083551;28;44012;-77
2022/10/02 14:03:08;;;;;;;;;;;;;;;;;;5076957;28;44590;-78
2022/10/02 14:05:35;;;;;;;;;;;;;;;;;;5082099;28;45141;-75
2022/10/02 14:08:02;;;;;;;;;;;;;;;;;;5073761;28;44965;-77
2022/10/02 14:10:30;;;;;;;;;;;;;;;;;;5076560;28;43468;-77
2022/10/02 14:12:58;;;;;;;;;;;;;;;;;;5077832;28;44659;-77
2022/10/02 14:15:25;;;;;;;;;;;;;;;;;;5087316;28;45428;-78
2022/10/02 14:17:52;;;;;;;;;;;;;;;;;;5087651;28;45126;-79
2022/10/02 14:20:19;;;;;;;;;;;;;;;;;;5083630;28;42976;-77
2022/10/02 14:22:46;;;;;;;;;;;;;;;;;;5080211;28;43961;-78
2022/10/02 14:25:13;;;;;;;;;;;;;;;;;;5081039;28;44591;-77
2022/10/02 14:27:40;;;;;;;;;;;;;;;;;;5079648;28;45398;-77
2022/10/02 14:30:07;;;;;;;;;;;;;;;;;;5075223;28;43591;-77
2022/10/02 14:32:34;;;;;;;;;;;;;;;;;;5078553;28;45200;-77
2022/10/02 14:35:01;;;;;;;;;;;;;;;;;;5086264;28;45564;-77
2022/10/02 14:37:28;;;;;;;;;;;;;;;;;;5088643;28;44914;-77
2022/10/02 14:39:55;;;;;;;;;;;;;;;;;;5091904;28;43878;-77
2022/10/02 14:42:22;;;;;;;;;;;;;;;;;;5083447;28;44719;-77
2022/10/02 14:44:49;;;;;;;;;;;;;;;;;;5077605;28;45631;-77
2022/10/02 14:47:16;;;;;;;;;;;;;;;;;;5079547;28;45065;-78
2022/10/02 14:49:44;;;;;;;;;;;;;;;;;;5076879;28;44679;-77
2022/10/02 14:52:11;;;;;;;;;;;;;;;;;;5075606;28;44907;-77
2022/10/02 14:54:38;;;;;;;;;;;;;;;;;;5080490;28;45920;-77
2022/10/02 14:57:05;;;;;;;;;;;;;;;;;;5092430;28;45098;-77
2022/10/02 14:59:32;;;;;;;;;;;;;;;;;;5075701;28;44751;-77
2022/10/02 15:01:59;;;;;;;;;;;;;;;;;;5075730;28;43480;-77
2022/10/02 15:04:26;;;;;;;;;;;;;;;;;;5077783;28;43322;-77
2022/10/02 15:06:55;;;;;;;;;;;;;;;;;;5091036;28;45094;-77
2022/10/02 15:09:23;;;;;;;;;;;;;;;;;;5078255;28;41976;-77
2022/10/02 15:11:50;;;;;;;;;;;;;;;;;;5078662;28;44717;-77
2022/10/02 15:14:17;;;;;;;;;;;;;;;;;;5079281;28;46260;-77
2022/10/02 15:19:32;;;;;;;;;;;;;;;;;;5078048;28;42801;-77
2022/10/02 15:22:00;;;;;;;;;;;;;;;;;;5076225;28;44747;-78
2022/10/02 15:24:28;;;;;;;;;;;;;;;;;;5079795;28;45758;-77
2022/10/02 15:26:55;;;;;;;;;;;;;;;;;;5080917;28;44388;-76
2022/10/02 15:29:22;;;;;;;;;;;;;;;;;;5077667;28;43829;-77
2022/10/02 15:31:52;;;;;;;;;;;;;;;;;;5084648;28;44841;-77
2022/10/02 15:34:19;;;;;;;;;;;;;;;;;;5082896;28;45421;-77
2022/10/02 15:36:50;;;;;;;;;;;;;;;;;;5071887;28;45126;-77
2022/10/02 15:39:17;;;;;;;;;;;;;;;;;;5081281;28;43612;-77
2022/10/02 15:41:44;;;;;;;;;;;;;;;;;;5080991;28;44777;-78
2022/10/02 15:44:11;;;;;;;;;;;;;;;;;;5085518;28;47014;-77
2022/10/02 15:46:39;;;;;;;;;;;;;;;;;;5073091;28;46421;-78
2022/10/02 15:49:06;;;;;;;;;;;;;;;;;;5088732;28;44680;-77
2022/10/02 15:51:33;;;;;;;;;;;;;;;;;;5083812;28;43039;-77
2022/10/02 15:54:00;;;;;;;;;;;;;;;;;;5073499;28;45746;-77
2022/10/02 15:56:27;;;;;;;;;;;;;;;;;;5078810;28;45079;-77
2022/10/02 15:58:54;;;;;;;;;;;;;;;;;;5085938;28;43710;-77
2022/10/02 16:01:20;;;;;;;;;;;;;;;;;;5077665;28;45258;-77
2022/10/02 16:03:48;;;;;;;;;;;;;;;;;;5088221;28;45168;-76
2022/10/02 16:06:15;;;;;;;;;;;;;;;;;;5092335;28;44598;-76
2022/10/02 16:08:42;;;;;;;;;;;;;;;;;;5082665;28;43253;-78
2022/10/02 16:11:09;;;;;;;;;;;;;;;;;;5079673;28;44914;-77
2022/10/02 16:13:36;;;;;;;;;;;;;;;;;;5083710;28;45574;-77
2022/10/02 16:16:03;;;;;;;;;;;;;;;;;;5083476;28;45239;-77
2022/10/02 16:18:31;;;;;;;;;;;;;;;;;;5084698;28;44648;-77
2022/10/02 16:20:57;;;;;;;;;;;;;;;;;;5093079;28;44610;-78
2022/10/02 16:23:25;;;;;;;;;;;;;;;;;;5082439;28;44960;-76
2022/10/02 16:25:52;;;;;;;;;;;;;;;;;;5092852;28;45229;-77
2022/10/02 16:28:18;;;;;;;;;;;;;;;;;;5085341;28;43615;-77
2022/10/02 16:30:46;;;;;;;;;;;;;;;;;;5081029;28;45010;-77
2022/10/02 16:33:12;;;;;;;;;;;;;;;;;;5079386;28;46748;-77
2022/10/02 16:35:40;;;;;;;;;;;;;;;;;;5079275;28;44788;-77
2022/10/02 16:38:09;;;;;;;;;;;;;;;;;;5084909;28;42411;-77
2022/10/02 16:40:39;;;;;;;;;;;;;;;;;;5077583;28;45856;-77
2022/10/02 16:43:06;;;;;;;;;;;;;;;;;;5079545;28;45105;-77
2022/10/02 16:45:33;;;;;;;;;;;;;;;;;;5077627;28;45057;-77
2022/10/02 16:48:00;;;;;;;;;;;;;;;;;;5086169;28;43430;-77
2022/10/02 16:50:28;;;;;;;;;;;;;;;;;;5076805;28;44915;-77
2022/10/02 16:52:55;;;;;;;;;;;;;;;;;;5080565;28;45775;-77
2022/10/02 16:55:24;;;;;;;;;;;;;;;;;;5075373;28;45009;-77
2022/10/02 16:57:52;;;;;;;;;;;;;;;;;;5079718;28;43250;-77
2022/10/02 17:00:19;;;;;;;;;;;;;;;;;;5076509;28;44758;-77